Mackinac Island, Michigan
Current Conditions -  °F | °C
As of 12:39 PM on Thursday 30 Oct 2014 (Local Time) from KMCD Reporting Station
Overcast Overcast  
Wind Chill: 38°   Ceiling: 2400
Heat Index: 42°   Visibility: 10mi
Dew Point: 37°   Wind: 6mph
Humidity: 83%   Direction: 200°SSW
Pressure: 30.04"   Gusts: NA
Location:  45.85°N, 84.62°W
Report Text: KMCD 301639Z AUTO 20005KT 10SM SCT010 BKN024 OVC070 06/03 A3004 RMK AO2 T00560030
Loading
Personal Weather Stations






























Interactive Weather Map
Tropical Storm Tracking
New forecast layout! Learn more

10-Day Weather Forecast

Advertisements
Track Severe Weather on mobile